createdAt,value
2022-11-17T00:00:09.601Z,5.1
2022-11-17T00:03:09.578Z,5.1
2022-11-17T00:06:09.638Z,5.1
2022-11-17T00:09:09.537Z,5.1
2022-11-17T00:12:09.573Z,5.1
2022-11-17T00:15:09.615Z,5.1
2022-11-17T00:18:09.537Z,5
2022-11-17T00:21:09.562Z,4.9
2022-11-17T00:24:09.575Z,4.9
2022-11-17T00:27:09.541Z,4.9
2022-11-17T00:30:09.677Z,4.9
2022-11-17T00:33:09.617Z,4.9
2022-11-17T00:36:09.533Z,4.9
2022-11-17T00:39:09.549Z,4.9
2022-11-17T00:42:09.534Z,4.9
2022-11-17T00:45:09.540Z,4.9
2022-11-17T00:48:09.596Z,4.9
2022-11-17T00:51:09.590Z,4.9
2022-11-17T00:54:09.586Z,4.9
2022-11-17T00:57:09.598Z,4.8
2022-11-17T01:00:09.617Z,4.8
2022-11-17T01:03:09.627Z,4.8
2022-11-17T01:06:09.552Z,4.8
2022-11-17T01:09:09.700Z,4.8
2022-11-17T01:12:09.630Z,4.8
2022-11-17T01:15:09.581Z,4.8
2022-11-17T01:18:09.578Z,4.7
2022-11-17T01:21:09.627Z,4.8
2022-11-17T01:24:09.568Z,4.8
2022-11-17T01:27:09.525Z,4.8
2022-11-17T01:30:09.553Z,4.8
2022-11-17T01:33:09.649Z,4.8
2022-11-17T01:36:09.683Z,4.8
2022-11-17T01:39:09.528Z,4.8
2022-11-17T01:42:09.548Z,4.8
2022-11-17T01:45:09.588Z,4.8
2022-11-17T01:48:09.653Z,4.7
2022-11-17T01:51:09.589Z,4.7
2022-11-17T01:54:09.624Z,4.7
2022-11-17T01:57:09.610Z,4.7
2022-11-17T02:00:09.582Z,4.7
2022-11-17T02:03:09.681Z,4.7
2022-11-17T02:06:10.001Z,4.7
2022-11-17T02:09:09.569Z,4.7
2022-11-17T02:12:09.558Z,4.7
2022-11-17T02:15:09.644Z,4.7
2022-11-17T02:18:09.538Z,4.7
2022-11-17T02:21:09.566Z,4.7
2022-11-17T02:24:09.570Z,4.7
2022-11-17T02:27:09.573Z,4.7
2022-11-17T02:30:09.657Z,4.7
2022-11-17T02:33:09.690Z,4.7
2022-11-17T02:36:09.589Z,4.6
2022-11-17T02:39:09.560Z,4.6
2022-11-17T02:42:09.605Z,4.6
2022-11-17T02:45:09.689Z,4.6
2022-11-17T02:48:09.611Z,4.6
2022-11-17T02:51:09.596Z,4.6
2022-11-17T02:54:09.649Z,4.6
2022-11-17T02:57:09.554Z,4.6
2022-11-17T03:00:09.603Z,4.6
2022-11-17T03:03:09.666Z,4.6
2022-11-17T03:06:09.584Z,4.6
2022-11-17T03:09:09.507Z,4.6
2022-11-17T03:12:09.772Z,4.6
2022-11-17T03:15:09.892Z,4.6
2022-11-17T03:18:09.587Z,4.6
2022-11-17T03:21:09.632Z,4.6
2022-11-17T03:24:09.530Z,4.6
2022-11-17T03:27:09.649Z,4.6
2022-11-17T03:30:09.620Z,4.6
2022-11-17T03:33:09.537Z,4.6
2022-11-17T03:36:09.624Z,4.6
2022-11-17T03:39:09.574Z,4.6
2022-11-17T03:42:09.592Z,4.6
2022-11-17T03:45:09.600Z,4.6
2022-11-17T03:48:09.416Z,4.6
2022-11-17T03:51:09.572Z,4.6
2022-11-17T03:54:09.595Z,4.6
2022-11-17T03:57:09.589Z,4.6
2022-11-17T04:00:09.579Z,4.6
2022-11-17T04:03:09.632Z,4.6
2022-11-17T04:06:09.716Z,4.6
2022-11-17T04:09:09.560Z,4.6
2022-11-17T04:12:09.580Z,4.6
2022-11-17T04:15:10.644Z,4.6
2022-11-17T04:18:09.614Z,4.6
2022-11-17T04:21:09.485Z,4.6
2022-11-17T04:24:09.568Z,4.6
2022-11-17T04:27:09.532Z,4.5
2022-11-17T04:30:09.790Z,4.4
2022-11-17T04:33:09.487Z,4.4
2022-11-17T04:36:09.522Z,4.4
2022-11-17T04:39:09.562Z,4.4
2022-11-17T04:42:09.586Z,4.4
2022-11-17T04:45:09.591Z,4.4
2022-11-17T04:48:09.527Z,4.4
2022-11-17T04:51:09.547Z,4.3
2022-11-17T04:54:09.631Z,4.3
2022-11-17T04:57:09.603Z,4.3
2022-11-17T05:00:10.527Z,4.3
2022-11-17T05:03:09.582Z,4.3
2022-11-17T05:06:09.596Z,4.3
2022-11-17T05:09:09.705Z,4.2
2022-11-17T05:12:09.553Z,4.2
2022-11-17T05:15:09.624Z,4.2
2022-11-17T05:18:09.641Z,4.2
2022-11-17T05:21:09.593Z,4.2
2022-11-17T05:24:09.939Z,4.1
2022-11-17T05:27:09.646Z,4.2
2022-11-17T05:30:09.627Z,4.1
2022-11-17T05:33:09.516Z,4.1
2022-11-17T05:36:09.613Z,4.1
2022-11-17T05:39:09.602Z,4.1
2022-11-17T05:42:09.711Z,4.1
2022-11-17T05:45:09.559Z,4.1
2022-11-17T05:48:09.543Z,4.1
2022-11-17T05:51:09.631Z,4.1
2022-11-17T05:54:09.562Z,4.1
2022-11-17T05:57:09.565Z,4.1
2022-11-17T06:00:09.652Z,4.1
2022-11-17T06:03:09.537Z,4.1
2022-11-17T06:06:09.657Z,4.1
2022-11-17T06:09:09.724Z,4.1
2022-11-17T06:12:15.594Z,4.1
2022-11-17T06:15:09.579Z,4
2022-11-17T06:18:09.553Z,4
2022-11-17T06:21:09.748Z,3.9
2022-11-17T06:24:09.811Z,3.9
2022-11-17T06:27:09.578Z,3.9
2022-11-17T06:30:09.603Z,3.9
2022-11-17T06:33:09.504Z,3.8
2022-11-17T06:36:09.544Z,3.8
2022-11-17T06:39:09.515Z,3.8
2022-11-17T06:42:09.569Z,3.8
2022-11-17T06:45:09.618Z,3.8
2022-11-17T06:48:09.662Z,3.8
2022-11-17T06:51:09.613Z,3.8
2022-11-17T06:54:09.718Z,3.8
2022-11-17T06:57:09.643Z,3.8
2022-11-17T07:00:09.721Z,3.8
2022-11-17T07:03:09.625Z,3.8
2022-11-17T07:06:09.578Z,3.7
2022-11-17T07:09:09.599Z,3.7
2022-11-17T07:12:09.568Z,3.7
2022-11-17T07:15:09.683Z,3.7
2022-11-17T07:18:09.627Z,3.7
2022-11-17T07:21:09.548Z,3.7
2022-11-17T07:24:09.598Z,3.7
2022-11-17T07:27:09.565Z,3.7
2022-11-17T07:30:09.966Z,3.6
2022-11-17T07:33:09.656Z,3.6
2022-11-17T07:36:09.777Z,3.6
2022-11-17T07:39:09.563Z,3.6
2022-11-17T07:42:09.618Z,3.6
2022-11-17T07:45:09.621Z,3.6
2022-11-17T07:48:09.694Z,3.6
2022-11-17T07:51:09.636Z,3.6
2022-11-17T07:54:09.607Z,3.5
2022-11-17T07:57:09.683Z,3.5
2022-11-17T08:00:09.613Z,3.5
2022-11-17T08:03:09.725Z,3.5
2022-11-17T08:06:09.602Z,3.5
2022-11-17T08:09:09.724Z,3.5
2022-11-17T08:12:09.590Z,3.5
2022-11-17T08:15:09.788Z,3.5
2022-11-17T08:18:09.547Z,3.5
2022-11-17T08:21:09.613Z,3.5
2022-11-17T08:24:09.656Z,3.5
2022-11-17T08:27:09.586Z,3.5
2022-11-17T08:30:09.625Z,3.5
2022-11-17T08:33:09.673Z,3.5
2022-11-17T08:36:09.625Z,3.5
2022-11-17T08:39:09.685Z,3.5
2022-11-17T08:42:09.614Z,3.5
2022-11-17T08:45:09.684Z,3.5
2022-11-17T08:48:09.647Z,3.5
2022-11-17T08:51:09.625Z,3.5
2022-11-17T08:54:09.625Z,3.5
2022-11-17T08:57:10.131Z,3.5
2022-11-17T09:00:09.763Z,3.5
2022-11-17T09:03:09.677Z,3.6
2022-11-17T09:06:09.749Z,3.6
2022-11-17T09:09:11.487Z,3.6
2022-11-17T09:12:09.638Z,3.6
2022-11-17T09:15:09.679Z,3.6
2022-11-17T09:18:09.620Z,3.6
2022-11-17T09:21:09.669Z,3.7
2022-11-17T09:24:09.635Z,3.7
2022-11-17T09:27:09.626Z,3.7
2022-11-17T09:30:09.727Z,3.7
2022-11-17T09:33:09.618Z,3.8
2022-11-17T09:36:09.635Z,3.8
2022-11-17T09:39:09.735Z,3.8
2022-11-17T09:42:09.653Z,3.8
2022-11-17T09:45:09.576Z,3.8
2022-11-17T09:48:49.541Z,3.8
2022-11-17T09:51:09.540Z,3.8
2022-11-17T09:54:09.737Z,3.8
2022-11-17T09:57:09.655Z,3.9
2022-11-17T10:00:09.642Z,3.9
2022-11-17T10:03:09.738Z,3.9
2022-11-17T10:06:09.633Z,3.9
2022-11-17T10:09:09.730Z,3.9
2022-11-17T10:12:09.657Z,3.9
2022-11-17T10:15:09.673Z,3.9
2022-11-17T10:18:09.743Z,3.9
2022-11-17T10:21:09.587Z,3.9
2022-11-17T10:24:09.714Z,3.9
2022-11-17T10:27:09.624Z,3.9
2022-11-17T10:30:09.644Z,3.9
2022-11-17T10:33:09.669Z,3.9
2022-11-17T10:36:09.667Z,3.9
2022-11-17T10:39:17.681Z,4
2022-11-17T10:42:09.598Z,3.9
2022-11-17T10:45:09.669Z,4
2022-11-17T10:48:09.711Z,4.1
2022-11-17T10:51:09.612Z,4.1
2022-11-17T10:54:09.649Z,4.1
2022-11-17T10:57:09.631Z,4.1
2022-11-17T11:00:09.834Z,4.1
2022-11-17T11:03:09.769Z,4.1
2022-11-17T11:06:16.212Z,4.2
2022-11-17T11:09:09.604Z,4.2
2022-11-17T11:12:09.619Z,4.2
2022-11-17T11:15:09.675Z,4.2
2022-11-17T11:18:09.614Z,4.2
2022-11-17T11:21:09.584Z,4.3
2022-11-17T11:24:09.623Z,4.3
2022-11-17T11:27:09.621Z,4.3
2022-11-17T11:30:09.827Z,4.2
2022-11-17T11:33:09.644Z,4.3
2022-11-17T11:36:09.693Z,4.3
2022-11-17T11:39:10.041Z,4.3
2022-11-17T11:42:17.116Z,4.3
2022-11-17T11:45:09.553Z,4.4
2022-11-17T11:48:09.645Z,4.4
2022-11-17T11:51:09.772Z,4.4
2022-11-17T11:54:09.950Z,4.4
2022-11-17T11:57:09.627Z,4.4
2022-11-17T12:00:13.883Z,4.4
2022-11-17T12:03:10.107Z,4.5
2022-11-17T12:06:09.583Z,4.5
2022-11-17T12:09:09.581Z,4.5
2022-11-17T12:12:09.706Z,4.6
2022-11-17T12:15:09.670Z,4.5
2022-11-17T12:18:09.733Z,4.6
2022-11-17T12:21:09.576Z,4.6
2022-11-17T12:24:09.843Z,4.6
2022-11-17T12:27:09.639Z,4.6
2022-11-17T12:30:10.132Z,4.6
2022-11-17T12:33:09.681Z,4.5
2022-11-17T12:36:09.658Z,4.6
2022-11-17T12:39:09.639Z,4.5
2022-11-17T12:42:09.626Z,4.6
2022-11-17T12:45:09.620Z,4.6
2022-11-17T12:48:44.004Z,4.6
2022-11-17T12:51:14.056Z,4.6
2022-11-17T12:54:09.836Z,4.6
2022-11-17T12:57:09.695Z,4.6
2022-11-17T13:00:10.069Z,4.6
2022-11-17T13:03:09.587Z,4.6
2022-11-17T13:06:44.207Z,4.6
2022-11-17T13:09:09.649Z,4.6
2022-11-17T13:12:10.118Z,4.6
2022-11-17T13:15:09.698Z,4.7
2022-11-17T13:18:09.711Z,4.7
2022-11-17T13:21:09.566Z,4.7
2022-11-17T13:24:09.675Z,4.7
2022-11-17T13:27:09.731Z,4.7
2022-11-17T13:30:09.922Z,4.6
2022-11-17T13:33:09.773Z,4.7
2022-11-17T13:36:10.696Z,4.6
2022-11-17T13:39:09.703Z,4.7
2022-11-17T13:42:09.644Z,4.7
2022-11-17T13:45:09.682Z,4.7
2022-11-17T13:48:09.556Z,4.7
2022-11-17T13:51:09.596Z,4.7
2022-11-17T13:54:09.729Z,4.7
2022-11-17T13:57:09.918Z,4.7
2022-11-17T14:00:09.840Z,4.7
2022-11-17T14:03:09.700Z,4.7
2022-11-17T14:06:10.014Z,4.7
2022-11-17T14:09:09.638Z,4.7
2022-11-17T14:12:09.602Z,4.7
2022-11-17T14:15:09.709Z,4.7
2022-11-17T14:18:09.699Z,4.7
2022-11-17T14:21:09.606Z,4.7
2022-11-17T14:24:09.710Z,4.7
2022-11-17T14:27:09.682Z,4.7
2022-11-17T14:30:09.627Z,4.7
2022-11-17T14:33:22.206Z,4.7
2022-11-17T14:36:09.657Z,4.7
2022-11-17T14:39:09.605Z,4.7
2022-11-17T14:42:09.567Z,4.7
2022-11-17T14:45:09.669Z,4.7
2022-11-17T14:48:11.598Z,4.7
2022-11-17T14:51:09.602Z,4.7
2022-11-17T14:54:09.719Z,4.7
2022-11-17T14:57:09.812Z,4.7
2022-11-17T15:00:09.964Z,4.7
2022-11-17T15:03:09.903Z,4.7
2022-11-17T15:06:09.720Z,4.7
2022-11-17T15:09:09.866Z,4.7
2022-11-17T15:12:09.987Z,4.7
2022-11-17T15:15:09.673Z,4.7
2022-11-17T15:18:09.644Z,4.7
2022-11-17T15:21:09.676Z,4.7
2022-11-17T15:24:09.647Z,4.7
2022-11-17T15:27:09.540Z,4.7
2022-11-17T15:30:09.566Z,4.7
2022-11-17T15:33:09.585Z,4.7
2022-11-17T15:36:09.560Z,4.7
2022-11-17T15:39:09.574Z,4.7
2022-11-17T15:42:09.594Z,4.7
2022-11-17T15:45:09.516Z,4.7
2022-11-17T15:48:09.997Z,4.7
2022-11-17T15:51:09.607Z,4.7
2022-11-17T15:54:10.008Z,4.7
2022-11-17T15:57:09.543Z,4.7
2022-11-17T16:00:09.761Z,4.7
2022-11-17T16:03:09.775Z,4.7
2022-11-17T16:06:09.716Z,4.7
2022-11-17T16:09:09.585Z,4.7
2022-11-17T16:12:10.034Z,4.7
2022-11-17T16:15:09.537Z,4.7
2022-11-17T16:18:09.560Z,4.7
2022-11-17T16:21:14.043Z,4.7
2022-11-17T16:24:09.886Z,4.7
2022-11-17T16:27:11.295Z,4.7
2022-11-17T16:30:09.596Z,4.7
2022-11-17T16:33:09.608Z,4.7
2022-11-17T16:36:09.567Z,4.7
2022-11-17T16:39:23.111Z,4.7
2022-11-17T16:42:09.641Z,4.7
2022-11-17T16:45:09.614Z,4.7
2022-11-17T16:48:09.674Z,4.7
2022-11-17T16:51:09.574Z,4.7
2022-11-17T16:54:09.638Z,4.7
2022-11-17T16:57:09.551Z,4.7
2022-11-17T17:00:09.632Z,4.7
2022-11-17T17:03:10.151Z,4.7
2022-11-17T17:06:09.620Z,4.7
2022-11-17T17:09:09.644Z,4.7
2022-11-17T17:12:09.628Z,4.7
2022-11-17T17:15:09.667Z,4.7
2022-11-17T17:18:09.594Z,4.7
2022-11-17T17:21:09.578Z,4.6
2022-11-17T17:24:09.571Z,4.7
2022-11-17T17:27:09.659Z,4.7
2022-11-17T17:30:09.851Z,4.7
2022-11-17T17:33:09.584Z,4.7
2022-11-17T17:36:09.523Z,4.7
2022-11-17T17:39:09.529Z,4.6
2022-11-17T17:42:09.506Z,4.7
2022-11-17T17:45:09.984Z,4.7
2022-11-17T17:48:09.593Z,4.7
2022-11-17T17:51:09.570Z,4.7
2022-11-17T17:54:09.975Z,4.6
2022-11-17T17:57:09.546Z,4.6
2022-11-17T18:00:09.595Z,4.6
2022-11-17T18:03:10.370Z,4.7
2022-11-17T18:06:09.537Z,4.7
2022-11-17T18:09:09.567Z,4.7
2022-11-17T18:12:09.562Z,4.6
2022-11-17T18:15:09.680Z,4.6
2022-11-17T18:18:09.646Z,4.6
2022-11-17T18:21:09.592Z,4.6
2022-11-17T18:24:09.674Z,4.7
2022-11-17T18:27:09.573Z,4.7
2022-11-17T18:30:09.629Z,4.6
2022-11-17T18:33:12.233Z,4.6
2022-11-17T18:36:09.729Z,4.6
2022-11-17T18:39:09.578Z,4.6
2022-11-17T18:42:09.603Z,4.6
2022-11-17T18:45:09.614Z,4.6
2022-11-17T18:48:09.563Z,4.6
2022-11-17T18:51:29.290Z,4.6
2022-11-17T18:54:09.550Z,4.6
2022-11-17T18:57:09.539Z,4.6
2022-11-17T19:00:09.647Z,4.5
2022-11-17T19:03:09.559Z,4.5
2022-11-17T19:06:09.502Z,4.5
2022-11-17T19:09:09.557Z,4.5
2022-11-17T19:12:09.572Z,4.5
2022-11-17T19:15:09.539Z,4.5
2022-11-17T19:18:09.566Z,4.5
2022-11-17T19:21:09.627Z,4.5
2022-11-17T19:24:09.588Z,4.4
2022-11-17T19:27:09.565Z,4.4
2022-11-17T19:30:09.608Z,4.4
2022-11-17T19:33:09.545Z,4.4
2022-11-17T19:36:09.629Z,4.4
2022-11-17T19:39:09.521Z,4.4
2022-11-17T19:42:09.560Z,4.4
2022-11-17T19:45:09.658Z,4.4
2022-11-17T19:48:09.503Z,4.3
2022-11-17T19:51:09.525Z,4.3
2022-11-17T19:54:09.655Z,4.3
2022-11-17T19:57:09.566Z,4.3
2022-11-17T20:00:09.662Z,4.3
2022-11-17T20:03:10.016Z,4.3
2022-11-17T20:06:09.554Z,4.2
2022-11-17T20:09:09.667Z,4.2
2022-11-17T20:12:09.548Z,4.3
2022-11-17T20:15:21.945Z,4.3
2022-11-17T20:18:09.553Z,4.2
2022-11-17T20:21:09.579Z,4.3
2022-11-17T20:24:09.571Z,4.2
2022-11-17T20:27:09.616Z,4.2
2022-11-17T20:30:15.894Z,4.2
2022-11-17T20:33:09.519Z,4.3
2022-11-17T20:36:09.595Z,4.3
2022-11-17T20:39:09.663Z,4.2
2022-11-17T20:42:09.593Z,4.2
2022-11-17T20:45:09.589Z,4.2
2022-11-17T20:48:09.617Z,4.2
2022-11-17T20:51:09.634Z,4.3
2022-11-17T20:54:09.561Z,4.2
2022-11-17T20:57:09.567Z,4.3
2022-11-17T21:00:09.602Z,4.3
2022-11-17T21:03:09.511Z,4.3
2022-11-17T21:06:09.559Z,4.3
2022-11-17T21:09:09.743Z,4.3
2022-11-17T21:12:09.620Z,4.3
2022-11-17T21:15:09.626Z,4.3
2022-11-17T21:18:09.551Z,4.3
2022-11-17T21:21:09.546Z,4.3
2022-11-17T21:24:09.587Z,4.3
2022-11-17T21:27:09.608Z,4.3
2022-11-17T21:30:09.602Z,4.3
2022-11-17T21:33:09.585Z,4.3
2022-11-17T21:36:09.553Z,4.3
2022-11-17T21:39:09.665Z,4.3
2022-11-17T21:42:09.578Z,4.3
2022-11-17T21:45:09.755Z,4.3
2022-11-17T21:48:09.581Z,4.3
2022-11-17T21:51:09.598Z,4.3
2022-11-17T21:54:09.851Z,4.3
2022-11-17T21:57:09.530Z,4.3
2022-11-17T22:00:09.587Z,4.3
2022-11-17T22:03:09.595Z,4.3
2022-11-17T22:06:11.473Z,4.2
2022-11-17T22:09:09.554Z,4.3
2022-11-17T22:12:09.553Z,4.2
2022-11-17T22:15:16.281Z,4.3
2022-11-17T22:18:09.540Z,4.2
2022-11-17T22:21:09.620Z,4.2
2022-11-17T22:24:09.521Z,4.2
2022-11-17T22:27:09.611Z,4.2
2022-11-17T22:30:09.698Z,4.2
2022-11-17T22:33:09.748Z,4.2
2022-11-17T22:36:09.563Z,4.2
2022-11-17T22:39:09.673Z,4.2
2022-11-17T22:42:09.564Z,4.2
2022-11-17T22:45:09.561Z,4.2
2022-11-17T22:48:09.621Z,4.2
2022-11-17T22:51:09.573Z,4.2
2022-11-17T22:54:09.593Z,4.2
2022-11-17T22:57:09.480Z,4.2
2022-11-17T23:00:09.956Z,4.2
2022-11-17T23:03:09.956Z,4.2
2022-11-17T23:06:09.511Z,4.2
2022-11-17T23:09:09.518Z,4.2
2022-11-17T23:12:09.566Z,4.2
2022-11-17T23:15:09.588Z,4.2
2022-11-17T23:18:09.512Z,4.2
2022-11-17T23:21:09.545Z,4.2
2022-11-17T23:24:09.544Z,4.2
2022-11-17T23:27:09.537Z,4.2
2022-11-17T23:30:09.654Z,4.2
2022-11-17T23:33:09.606Z,4.2
2022-11-17T23:36:09.546Z,4.2
2022-11-17T23:39:09.559Z,4.2
2022-11-17T23:42:09.598Z,4.2
2022-11-17T23:45:09.553Z,4.2
2022-11-17T23:48:09.708Z,4.2
2022-11-17T23:51:09.505Z,4.2
2022-11-17T23:54:09.578Z,4.2
2022-11-17T23:57:09.516Z,4.2
